Dades meteomassalio
Diari Summary for Setembre 26, 2017 Units:  Metric    English   Both
« Previous Day
Next Day »
Diari Semanal Mensual Anual Personalitzat
  Maxima: Minima: Mijana:
Temperatura: 24.4 °C 13.9 °C 18.7 °C
Rosada: 13.7 °C 9.2 °C 11.3 °C
Humitat: 78 % 43 % 63 %
Velocitat del vent: 31.5 km/h 0.0 km/h 12.7 km/h
Racha vent: 31.5 km/h - -
Vent:- - South
Pressio: 1023.2 hPa 1020.2 hPa -
Pluja: 0.0 mm    
Historical Graphs
 
 
Tabular Data for Setembre 26, 2017
Time Temperature Dew Point Pressure Wind Wind Speed Wind Gust Humidity Rainfall Rate (Hourly) solar Conditions
00:04 18.9 °C 10.7 °C 1022.2 hPa South 24.1 km/h 24.1 km/h 59 % 0.0 mm 0.0 W/m2 CLR
00:09 18.9 °C 10.9 °C 1022.2 hPa SSW 25.9 km/h 25.9 km/h 60 % 0.0 mm 0.0 W/m2 CLR
00:14 18.9 °C 10.9 °C 1022.2 hPa SSW 20.4 km/h 20.4 km/h 60 % 0.0 mm 0.0 W/m2 CLR
00:19 18.9 °C 10.9 °C 1022.2 hPa SW 20.9 km/h 21.9 km/h 60 % 0.0 mm 0.0 W/m2 CLR
00:24 18.9 °C 11.2 °C 1022.2 hPa SW 24.1 km/h 24.1 km/h 61 % 0.0 mm 0.0 W/m2 CLR
00:29 18.3 °C 10.9 °C 1021.9 hPa SSW 29.6 km/h 29.6 km/h 62 % 0.0 mm 0.0 W/m2 CLR
00:34 18.3 °C 10.9 °C 1022.2 hPa SW 27.8 km/h 27.8 km/h 62 % 0.0 mm 0.0 W/m2 CLR
00:39 18.3 °C 11.2 °C 1022.2 hPa SSW 22.2 km/h 22.2 km/h 63 % 0.0 mm 0.0 W/m2 CLR
00:44 18.3 °C 11.2 °C 1022.2 hPa SSW 22.5 km/h 22.5 km/h 63 % 0.0 mm 0.0 W/m2 CLR
00:49 18.3 °C 11.2 °C 1022.2 hPa SSW 16.7 km/h 16.7 km/h 63 % 0.0 mm 0.0 W/m2 CLR
00:59 17.8 °C 10.9 °C 1022.2 hPa SW 22.2 km/h 22.2 km/h 64 % 0.0 mm 0.0 W/m2 CLR
01:04 17.8 °C 10.9 °C 1022.2 hPa SSW 22.2 km/h 22.2 km/h 64 % 0.0 mm 0.0 W/m2 CLR
01:09 17.8 °C 10.9 °C 1022.2 hPa SSW 18.5 km/h 18.5 km/h 64 % 0.0 mm 0.0 W/m2 CLR
01:14 17.8 °C 11.1 °C 1022.2 hPa SSW 22.2 km/h 22.2 km/h 65 % 0.0 mm 0.0 W/m2 CLR
01:19 17.8 °C 11.1 °C 1022.2 hPa SW 20.4 km/h 20.4 km/h 65 % 0.0 mm 0.0 W/m2 CLR
01:24 17.8 °C 11.3 °C 1022.2 hPa SSW 18.5 km/h 18.5 km/h 66 % 0.0 mm 0.0 W/m2 CLR
01:29 17.8 °C 11.3 °C 1022.2 hPa SW 24.1 km/h 24.1 km/h 66 % 0.0 mm 0.0 W/m2 CLR
01:34 17.8 °C 11.3 °C 1022.2 hPa SSW 31.5 km/h 31.5 km/h 66 % 0.0 mm 0.0 W/m2 CLR
01:39 17.2 °C 10.8 °C 1022.2 hPa SSW 29.6 km/h 29.6 km/h 66 % 0.0 mm 0.0 W/m2 CLR
01:44 17.2 °C 10.8 °C 1022.6 hPa SW 16.7 km/h 16.7 km/h 66 % 0.0 mm 0.0 W/m2 CLR
01:49 17.2 °C 11.1 °C 1022.6 hPa SSW 20.4 km/h 20.4 km/h 67 % 0.0 mm 0.0 W/m2 CLR
01:54 17.2 °C 11.3 °C 1022.6 hPa SW 22.5 km/h 22.5 km/h 68 % 0.0 mm 0.0 W/m2 CLR
01:59 17.2 °C 11.3 °C 1022.2 hPa SSW 25.9 km/h 25.9 km/h 68 % 0.0 mm 0.0 W/m2 CLR
02:04 17.2 °C 11.3 °C 1022.6 hPa SSW 20.4 km/h 20.4 km/h 68 % 0.0 mm 0.0 W/m2 CLR
02:09 17.2 °C 11.3 °C 1022.6 hPa SW 20.4 km/h 20.4 km/h 68 % 0.0 mm 0.0 W/m2 CLR
02:14 17.2 °C 11.5 °C 1022.6 hPa SSW 19.3 km/h 19.3 km/h 69 % 0.0 mm 0.0 W/m2 CLR
02:19 17.2 °C 11.5 °C 1022.6 hPa SSW 22.5 km/h 22.5 km/h 69 % 0.0 mm 0.0 W/m2 CLR
02:24 16.7 °C 10.9 °C 1022.6 hPa South 17.7 km/h 17.7 km/h 69 % 0.0 mm 0.0 W/m2 CLR
02:29 16.7 °C 10.9 °C 1022.2 hPa South 19.3 km/h 19.3 km/h 69 % 0.0 mm 0.0 W/m2 CLR
02:34 16.7 °C 10.9 °C 1022.6 hPa SSW 16.7 km/h 16.7 km/h 69 % 0.0 mm 0.0 W/m2 CLR
02:39 16.7 °C 10.9 °C 1022.6 hPa South 16.7 km/h 16.7 km/h 69 % 0.0 mm 0.0 W/m2 CLR
02:44 16.7 °C 11.2 °C 1022.6 hPa South 18.5 km/h 18.5 km/h 70 % 0.0 mm 0.0 W/m2 CLR
02:49 16.1 °C 10.6 °C 1022.6 hPa SSW 16.7 km/h 16.7 km/h 70 % 0.0 mm 0.0 W/m2 CLR
02:54 16.1 °C 10.6 °C 1022.2 hPa SSW 16.7 km/h 16.7 km/h 70 % 0.0 mm 0.0 W/m2 CLR
02:59 16.1 °C 10.6 °C 1022.2 hPa SSW 18.5 km/h 18.5 km/h 70 % 0.0 mm 0.0 W/m2 CLR
03:04 16.7 °C 11.2 °C 1022.2 hPa SSW 16.1 km/h 16.1 km/h 70 % 0.0 mm 0.0 W/m2 CLR
03:14 16.7 °C 11.2 °C 1022.2 hPa SSW 20.4 km/h 20.4 km/h 70 % 0.0 mm 0.0 W/m2 CLR
03:19 16.1 °C 10.6 °C 1022.2 hPa SSW 18.5 km/h 18.5 km/h 70 % 0.0 mm 0.0 W/m2 CLR
03:24 16.1 °C 10.6 °C 1022.2 hPa SSW 14.8 km/h 14.8 km/h 70 % 0.0 mm 0.0 W/m2 CLR
03:29 16.1 °C 10.6 °C 1022.2 hPa SSE 22.2 km/h 22.2 km/h 70 % 0.0 mm 0.0 W/m2 CLR
03:34 16.1 °C 10.6 °C 1022.2 hPa South 14.8 km/h 14.8 km/h 70 % 0.0 mm 0.0 W/m2 CLR
03:39 16.1 °C 10.6 °C 1022.2 hPa SSW 5.6 km/h 5.6 km/h 70 % 0.0 mm 0.0 W/m2 CLR
03:44 16.1 °C 10.6 °C 1022.2 hPa South 18.5 km/h 18.5 km/h 70 % 0.0 mm 0.0 W/m2 CLR
03:49 16.1 °C 10.6 °C 1022.2 hPa SSW 22.5 km/h 22.5 km/h 70 % 0.0 mm 0.0 W/m2 CLR
03:54 16.1 °C 10.6 °C 1022.2 hPa SSW 24.1 km/h 24.1 km/h 70 % 0.0 mm 0.0 W/m2 CLR
03:59 16.1 °C 10.6 °C 1022.2 hPa SSW 18.5 km/h 18.5 km/h 70 % 0.0 mm 0.0 W/m2 CLR
04:04 16.1 °C 10.6 °C 1022.2 hPa South 18.5 km/h 18.5 km/h 70 % 0.0 mm 0.0 W/m2 CLR
04:09 15.6 °C 10.1 °C 1022.2 hPa SSW 18.5 km/h 18.5 km/h 70 % 0.0 mm 0.0 W/m2 CLR
04:14 16.1 °C 10.6 °C 1022.2 hPa SSE 11.1 km/h 11.1 km/h 70 % 0.0 mm 0.0 W/m2 CLR
04:19 16.1 °C 10.6 °C 1022.2 hPa SSE 1.9 km/h   70 % 0.0 mm 0.0 W/m2 CLR
04:24 16.1 °C 10.6 °C 1022.2 hPa SSW 14.8 km/h 14.8 km/h 70 % 0.0 mm 0.0 W/m2 CLR
04:29 16.1 °C 10.6 °C 1022.2 hPa SSE 11.1 km/h 11.1 km/h 70 % 0.0 mm 0.0 W/m2 CLR
04:34 16.1 °C 10.6 °C 1022.2 hPa SSE 14.8 km/h 14.8 km/h 70 % 0.0 mm 0.0 W/m2 CLR
04:39 16.1 °C 10.6 °C 1022.2 hPa SSE 16.7 km/h 16.7 km/h 70 % 0.0 mm 0.0 W/m2 CLR
04:44 16.1 °C 10.6 °C 1022.6 hPa Calm   0.2 km/h 70 % 0.0 mm 0.0 W/m2 CLR
04:49 16.1 °C 10.6 °C 1022.6 hPa Calm     70 % 0.0 mm 0.0 W/m2 CLR
04:54 16.1 °C 10.6 °C 1022.6 hPa Calm     70 % 0.0 mm 0.0 W/m2 CLR
04:59 16.1 °C 10.6 °C 1022.2 hPa Calm     70 % 0.0 mm 0.0 W/m2 CLR
05:04 16.1 °C 10.6 °C 1022.2 hPa SSE 4.8 km/h   70 % 0.0 mm 0.0 W/m2 CLR
05:09 16.1 °C 10.6 °C 1022.6 hPa South 5.6 km/h 5.6 km/h 70 % 0.0 mm 0.0 W/m2 CLR
05:16 16.1 °C 10.6 °C 1022.6 hPa SSE 16.7 km/h 16.7 km/h 70 % 0.0 mm 0.0 W/m2 CLR
05:21 16.1 °C 10.6 °C 1022.6 hPa SSW 11.1 km/h 11.1 km/h 70 % 0.0 mm 0.0 W/m2 CLR
05:24 16.1 °C 10.6 °C 1022.2 hPa South 11.1 km/h 11.1 km/h 70 % 0.0 mm 0.0 W/m2 CLR
05:26 16.1 °C 10.6 °C 1022.2 hPa SSW 16.1 km/h 16.1 km/h 70 % 0.0 mm 0.0 W/m2 CLR
05:27 16.1 °C 10.6 °C 1022.2 hPa SSW 14.8 km/h 14.8 km/h 70 % 0.0 mm 0.0 W/m2 CLR
05:28 16.1 °C 10.6 °C 1022.2 hPa South 16.7 km/h 16.7 km/h 70 % 0.0 mm 0.0 W/m2 CLR
05:33 16.1 °C 10.6 °C 1022.2 hPa South 18.5 km/h 18.5 km/h 70 % 0.0 mm 0.0 W/m2 CLR
05:38 16.1 °C 10.6 °C 1022.2 hPa SSW 16.7 km/h 16.7 km/h 70 % 0.0 mm 0.0 W/m2 CLR
05:43 16.1 °C 10.6 °C 1022.6 hPa SSE 16.7 km/h 16.7 km/h 70 % 0.0 mm 0.0 W/m2 CLR
05:48 16.1 °C 10.6 °C 1022.6 hPa South 9.3 km/h 9.3 km/h 70 % 0.0 mm 0.0 W/m2 CLR
05:53 16.1 °C 10.6 °C 1022.6 hPa SSW 7.4 km/h 7.4 km/h 70 % 0.0 mm 0.0 W/m2 CLR
05:58 16.1 °C 10.6 °C 1022.2 hPa SSW 16.7 km/h 16.7 km/h 70 % 0.0 mm 0.0 W/m2 CLR
06:03 16.1 °C 10.6 °C 1022.2 hPa SSW 14.8 km/h 14.8 km/h 70 % 0.0 mm 0.0 W/m2 CLR
06:08 16.7 °C 11.2 °C 1022.6 hPa South 18.5 km/h 18.5 km/h 70 % 0.0 mm 0.0 W/m2 CLR
06:13 16.1 °C 10.6 °C 1022.6 hPa South 4.8 km/h 4.8 km/h 70 % 0.0 mm 0.0 W/m2 CLR
06:18 16.7 °C 11.2 °C 1022.6 hPa SSE 7.4 km/h 7.4 km/h 70 % 0.0 mm 0.0 W/m2 CLR
06:23 16.7 °C 11.2 °C 1022.6 hPa SSW 11.1 km/h 11.1 km/h 70 % 0.0 mm 0.0 W/m2 CLR
06:28 16.1 °C 10.6 °C 1022.6 hPa South 11.1 km/h 11.1 km/h 70 % 0.0 mm 0.0 W/m2 CLR
06:33 16.1 °C 10.6 °C 1022.6 hPa South 13.0 km/h 13.0 km/h 70 % 0.0 mm 0.0 W/m2 CLR
06:38 16.1 °C 10.8 °C 1022.6 hPa Calm   2.6 km/h 71 % 0.0 mm 0.0 W/m2 CLR
06:43 16.1 °C 10.8 °C 1022.6 hPa SSW 17.7 km/h 17.7 km/h 71 % 0.0 mm 0.0 W/m2 CLR
06:48 16.1 °C 10.8 °C 1022.6 hPa SSW 11.1 km/h 11.1 km/h 71 % 0.0 mm 0.0 W/m2 CLR
06:53 16.1 °C 10.8 °C 1022.6 hPa South 18.5 km/h 18.5 km/h 71 % 0.0 mm 0.0 W/m2 CLR
06:58 16.1 °C 10.8 °C 1022.6 hPa South 16.7 km/h 16.7 km/h 71 % 0.0 mm 0.0 W/m2 CLR
07:03 16.1 °C 10.8 °C 1022.6 hPa South 16.7 km/h 16.7 km/h 71 % 0.0 mm 0.0 W/m2 CLR
07:06 16.1 °C 10.8 °C 1022.6 hPa SSW 18.5 km/h 18.5 km/h 71 % 0.0 mm 0.0 W/m2 CLR
07:11 16.1 °C 10.8 °C 1022.6 hPa SSW 13.0 km/h 13.0 km/h 71 % 0.0 mm 0.0 W/m2 CLR
07:16 16.1 °C 10.8 °C 1022.6 hPa South 13.0 km/h 13.0 km/h 71 % 0.0 mm 0.0 W/m2 CLR
07:26 16.1 °C 10.8 °C 1022.6 hPa South 9.3 km/h 9.3 km/h 71 % 0.0 mm 0.0 W/m2 CLR
07:31 16.1 °C 11.1 °C 1022.6 hPa Calm     72 % 0.0 mm 0.0 W/m2 CLR
07:36 16.1 °C 11.1 °C 1022.6 hPa SSE 9.7 km/h 9.7 km/h 72 % 0.0 mm 0.0 W/m2 CLR
07:41 16.1 °C 11.1 °C 1022.6 hPa SSW 11.3 km/h 11.3 km/h 72 % 0.0 mm 0.0 W/m2 OVC
07:46 16.1 °C 10.8 °C 1022.6 hPa South 13.0 km/h 13.0 km/h 71 % 0.0 mm 0.0 W/m2 OVC
07:51 16.1 °C 10.8 °C 1022.6 hPa SSW 18.5 km/h 18.5 km/h 71 % 0.0 mm 5.0 W/m2 OVC
07:56 16.1 °C 10.8 °C 1022.6 hPa SSW 14.5 km/h 14.5 km/h 71 % 0.0 mm 7.0 W/m2 BKN
08:01 16.1 °C 10.8 °C 1022.9 hPa South 18.5 km/h 18.5 km/h 71 % 0.0 mm 11.0 W/m2 BKN
08:06 16.1 °C 10.8 °C 1022.9 hPa SSW 18.5 km/h 18.5 km/h 71 % 0.0 mm 14.0 W/m2 BKN
08:16 16.1 °C 10.8 °C 1022.9 hPa SW 18.5 km/h 18.5 km/h 71 % 0.0 mm 25.0 W/m2 BKN
08:21 16.1 °C 10.8 °C 1022.9 hPa South 8.0 km/h 8.0 km/h 71 % 0.0 mm 26.0 W/m2 BKN
08:26 16.1 °C 10.8 °C 1022.9 hPa SSW 16.7 km/h 16.7 km/h 71 % 0.0 mm 30.0 W/m2 BKN
08:31 16.1 °C 10.8 °C 1022.9 hPa SSW 29.6 km/h 29.6 km/h 71 % 0.0 mm 25.0 W/m2 BKN
08:36 16.7 °C 11.4 °C 1023.2 hPa SSW 3.7 km/h 3.7 km/h 71 % 0.0 mm 26.0 W/m2 BKN
08:41 16.7 °C 11.4 °C 1023.2 hPa South 16.7 km/h 16.7 km/h 71 % 0.0 mm 42.0 W/m2 BKN
08:46 16.7 °C 11.4 °C 1023.2 hPa SSW 14.8 km/h 14.8 km/h 71 % 0.0 mm 49.0 W/m2 SCT
08:51 16.7 °C 11.4 °C 1022.9 hPa SSW 22.2 km/h 22.2 km/h 71 % 0.0 mm 54.0 W/m2 SCT
08:56 16.7 °C 11.2 °C 1022.9 hPa SSW 20.4 km/h 20.4 km/h 70 % 0.0 mm 56.0 W/m2 SCT
09:01 16.7 °C 11.4 °C 1023.2 hPa SW 14.8 km/h 14.8 km/h 71 % 0.0 mm 62.0 W/m2 SCT
09:06 16.7 °C 11.2 °C 1023.2 hPa South 19.3 km/h 19.3 km/h 70 % 0.0 mm 63.0 W/m2 SCT
09:11 16.7 °C 11.2 °C 1023.2 hPa SSW 24.1 km/h 24.1 km/h 70 % 0.0 mm 62.0 W/m2 SCT
09:16 16.7 °C 11.2 °C 1023.2 hPa South 19.3 km/h 19.3 km/h 70 % 0.0 mm 72.0 W/m2 SCT
09:21 16.7 °C 11.2 °C 1022.9 hPa SSW 24.1 km/h 24.1 km/h 70 % 0.0 mm 95.0 W/m2 FEW
09:26 17.2 °C 11.7 °C 1023.2 hPa SSW 18.5 km/h 18.5 km/h 70 % 0.0 mm 102.0 W/m2 CLR
09:31 17.2 °C 11.7 °C 1023.2 hPa SW 19.3 km/h 19.3 km/h 70 % 0.0 mm 93.0 W/m2 CLR
09:36 17.2 °C 11.7 °C 1023.2 hPa SSW 22.2 km/h 22.2 km/h 70 % 0.0 mm 104.0 W/m2 CLR
09:41 17.2 °C 11.7 °C 1023.2 hPa SW 25.9 km/h 25.9 km/h 70 % 0.0 mm 113.0 W/m2 CLR
09:46 17.2 °C 11.7 °C 1023.2 hPa SW 20.4 km/h 20.4 km/h 70 % 0.0 mm 109.0 W/m2 CLR
09:51 17.2 °C 11.7 °C 1023.2 hPa SW 20.4 km/h 20.4 km/h 70 % 0.0 mm 107.0 W/m2 CLR
09:56 17.2 °C 11.7 °C 1023.2 hPa SW 22.2 km/h 22.2 km/h 70 % 0.0 mm 114.0 W/m2 CLR
10:01 17.2 °C 11.7 °C 1023.2 hPa SW 16.1 km/h 16.1 km/h 70 % 0.0 mm 134.0 W/m2 CLR
10:06 17.2 °C 11.7 °C 1023.2 hPa WSW 25.7 km/h 25.7 km/h 70 % 0.0 mm 142.0 W/m2 CLR
10:10 17.2 °C 11.5 °C 1023.2 hPa SSW 29.6 km/h 29.6 km/h 69 % 0.0 mm 151.0 W/m2 CLR
10:15 17.2 °C 11.5 °C 1023.2 hPa South 24.1 km/h 24.1 km/h 69 % 0.0 mm 158.0 W/m2 CLR
10:20 17.8 °C 12.0 °C 1023.2 hPa South 18.5 km/h 18.5 km/h 69 % 0.0 mm 135.0 W/m2 CLR
10:25 17.2 °C 11.5 °C 1023.2 hPa SSW 20.4 km/h 20.4 km/h 69 % 0.0 mm 200.0 W/m2 CLR
10:30 17.8 °C 12.0 °C 1023.2 hPa SSW 18.5 km/h 18.5 km/h 69 % 0.0 mm 244.0 W/m2 CLR
10:35 17.8 °C 12.0 °C 1023.2 hPa SSW 19.3 km/h 19.3 km/h 69 % 0.0 mm 241.0 W/m2 CLR
10:40 17.8 °C 11.8 °C 1023.2 hPa SSW 19.3 km/h 19.3 km/h 68 % 0.0 mm 236.0 W/m2 CLR
10:45 17.8 °C 11.8 °C 1023.2 hPa SSW 25.9 km/h 25.9 km/h 68 % 0.0 mm 243.0 W/m2 CLR
10:50 18.3 °C 12.3 °C 1023.2 hPa SSW 22.2 km/h 22.2 km/h 68 % 0.0 mm 267.0 W/m2 CLR
10:55 18.3 °C 12.1 °C 1023.2 hPa SSW 20.4 km/h 20.4 km/h 67 % 0.0 mm 287.0 W/m2 CLR
11:00 18.3 °C 12.3 °C 1023.2 hPa SSW 16.7 km/h 16.7 km/h 68 % 0.0 mm 332.0 W/m2 CLR
11:05 18.3 °C 12.1 °C 1023.2 hPa SSE 11.1 km/h 11.1 km/h 67 % 0.0 mm 422.0 W/m2 CLR
11:10 18.3 °C 11.6 °C 1023.2 hPa SW 24.1 km/h 24.1 km/h 65 % 0.0 mm 418.0 W/m2 CLR
11:15 18.3 °C 11.6 °C 1023.2 hPa SSW 22.5 km/h 22.5 km/h 65 % 0.0 mm 489.0 W/m2 CLR
11:20 18.3 °C 11.9 °C 1023.2 hPa South 22.2 km/h 22.2 km/h 66 % 0.0 mm 364.0 W/m2 CLR
11:25 18.9 °C 12.4 °C 1023.2 hPa SSW 16.1 km/h 16.1 km/h 66 % 0.0 mm 503.0 W/m2 CLR
11:30 18.9 °C 12.2 °C 1023.2 hPa SSW 18.5 km/h 18.5 km/h 65 % 0.0 mm 387.0 W/m2 CLR
11:35 18.9 °C 11.9 °C 1023.2 hPa SW 18.5 km/h 18.5 km/h 64 % 0.0 mm 424.0 W/m2 CLR
11:45 18.9 °C 12.2 °C 1023.2 hPa SW 18.5 km/h 18.5 km/h 65 % 0.0 mm 387.0 W/m2 CLR
11:50 19.4 °C 12.4 °C 1023.2 hPa WSW 24.1 km/h 24.1 km/h 64 % 0.0 mm 346.0 W/m2 CLR
11:55 19.4 °C 12.4 °C 1023.2 hPa SSW 22.2 km/h 22.2 km/h 64 % 0.0 mm 329.0 W/m2 CLR
12:00 19.4 °C 12.4 °C 1023.2 hPa SW 20.4 km/h 20.4 km/h 64 % 0.0 mm 323.0 W/m2 CLR
12:05 19.4 °C 12.7 °C 1023.2 hPa WSW 22.5 km/h 22.5 km/h 65 % 0.0 mm 418.0 W/m2 CLR
12:10 18.9 °C 12.2 °C 1023.2 hPa SW 16.7 km/h 16.7 km/h 65 % 0.0 mm 272.0 W/m2 CLR
12:15 18.9 °C 11.9 °C 1023.2 hPa SW 22.2 km/h 22.2 km/h 64 % 0.0 mm 304.0 W/m2 CLR
12:20 19.4 °C 12.2 °C 1023.2 hPa SSW 20.9 km/h 20.9 km/h 63 % 0.0 mm 619.0 W/m2 CLR
12:25 19.4 °C 12.4 °C 1023.2 hPa South 14.5 km/h 14.5 km/h 64 % 0.0 mm 367.0 W/m2 CLR
12:30 19.4 °C 12.2 °C 1022.9 hPa SSW 24.1 km/h 24.1 km/h 63 % 0.0 mm 798.0 W/m2 CLR
12:35 20.6 °C 13.0 °C 1022.9 hPa SSW 19.3 km/h 19.3 km/h 62 % 0.0 mm 800.0 W/m2 CLR
12:45 21.1 °C 13.1 °C 1022.9 hPa SSE 9.3 km/h 9.3 km/h 60 % 0.0 mm 466.0 W/m2 CLR
12:50 21.1 °C 13.3 °C 1022.9 hPa South 9.3 km/h 9.3 km/h 61 % 0.0 mm 898.0 W/m2 CLR
12:55 21.1 °C 12.5 °C 1022.9 hPa SW 22.2 km/h 22.2 km/h 58 % 0.0 mm 271.0 W/m2 CLR
13:00 21.1 °C 13.1 °C 1022.6 hPa Calm     60 % 0.0 mm 877.0 W/m2 CLR
13:05 20.6 °C 12.3 °C 1022.6 hPa South 22.2 km/h 22.2 km/h 59 % 0.0 mm 816.0 W/m2 CLR
13:10 21.1 °C 12.8 °C 1022.6 hPa SW 18.5 km/h 18.5 km/h 59 % 0.0 mm 772.0 W/m2 CLR
13:15 21.7 °C 13.1 °C 1022.6 hPa SSW 16.1 km/h 16.1 km/h 58 % 0.0 mm 918.0 W/m2 CLR
13:20 22.2 °C 13.0 °C 1022.2 hPa SW 20.4 km/h 20.4 km/h 56 % 0.0 mm 933.0 W/m2 CLR
13:25 22.8 °C 13.6 °C 1022.2 hPa South 13.0 km/h 13.0 km/h 56 % 0.0 mm 893.0 W/m2 CLR
13:30 22.2 °C 13.3 °C 1022.2 hPa SW 13.0 km/h 13.0 km/h 57 % 0.0 mm 909.0 W/m2 CLR
13:35 22.2 °C 13.0 °C 1022.2 hPa SW 14.8 km/h 14.8 km/h 56 % 0.0 mm 886.0 W/m2 CLR
13:40 22.2 °C 13.0 °C 1022.2 hPa SSW 11.1 km/h 11.1 km/h 56 % 0.0 mm 874.0 W/m2 CLR
13:50 22.2 °C 13.0 °C 1021.9 hPa SW 5.6 km/h 5.6 km/h 56 % 0.0 mm 232.0 W/m2 CLR
13:55 21.1 °C 11.7 °C 1021.9 hPa South 7.4 km/h 7.4 km/h 55 % 0.0 mm 765.0 W/m2 CLR
14:00 22.2 °C 12.7 °C 1021.6 hPa SW 18.5 km/h 18.5 km/h 55 % 0.0 mm 751.0 W/m2 CLR
14:05 22.8 °C 13.0 °C 1021.6 hPa SW 5.6 km/h 5.6 km/h 54 % 0.0 mm 744.0 W/m2 CLR
14:10 22.8 °C 13.0 °C 1021.6 hPa WSW 5.6 km/h 5.6 km/h 54 % 0.0 mm 752.0 W/m2 CLR
14:16 22.8 °C 12.7 °C 1021.6 hPa WSW 13.0 km/h 13.0 km/h 53 % 0.0 mm 740.0 W/m2 CLR
14:21 23.3 °C 13.2 °C 1021.6 hPa West 9.7 km/h 9.7 km/h 53 % 0.0 mm 737.0 W/m2 CLR
14:26 22.8 °C 12.7 °C 1021.6 hPa Calm     53 % 0.0 mm 733.0 W/m2 CLR
14:31 22.8 °C 12.1 °C 1021.6 hPa SW 14.8 km/h 14.8 km/h 51 % 0.0 mm 742.0 W/m2 CLR
14:36 23.3 °C 12.3 °C 1021.6 hPa ESE 7.4 km/h 7.4 km/h 50 % 0.0 mm 744.0 W/m2 CLR
14:41 23.9 °C 13.1 °C 1021.6 hPa SW 13.0 km/h 13.0 km/h 51 % 0.0 mm 758.0 W/m2 CLR
14:46 24.4 °C 13.3 °C 1021.6 hPa Calm     50 % 0.0 mm 805.0 W/m2 CLR
14:50 24.4 °C 13.7 °C 1021.6 hPa WNW 5.6 km/h   51 % 0.0 mm 784.0 W/m2 CLR
14:56 23.3 °C 12.0 °C 1021.6 hPa South 11.3 km/h 11.3 km/h 49 % 0.0 mm 737.0 W/m2 CLR
14:57 23.3 °C 12.0 °C 1021.6 hPa SSW 11.1 km/h 11.1 km/h 49 % 0.0 mm 726.0 W/m2 CLR
15:02 23.3 °C 12.3 °C 1021.2 hPa SE 8.0 km/h 8.0 km/h 50 % 0.0 mm 728.0 W/m2 CLR
15:07 23.9 °C 12.2 °C 1021.2 hPa SE 9.3 km/h 9.3 km/h 48 % 0.0 mm 705.0 W/m2 CLR
15:12 23.9 °C 12.5 °C 1021.2 hPa East 9.3 km/h 9.3 km/h 49 % 0.0 mm 701.0 W/m2 CLR
15:17 23.9 °C 12.2 °C 1021.2 hPa Calm     48 % 0.0 mm 684.0 W/m2 CLR
15:22 23.9 °C 12.2 °C 1021.2 hPa SW 16.7 km/h 16.7 km/h 48 % 0.0 mm 687.0 W/m2 CLR
15:27 23.9 °C 11.9 °C 1021.2 hPa SW 14.8 km/h 14.8 km/h 47 % 0.0 mm 675.0 W/m2 CLR
15:32 23.9 °C 12.2 °C 1021.2 hPa Calm     48 % 0.0 mm 682.0 W/m2 CLR
15:37 23.9 °C 12.2 °C 1021.2 hPa Calm     48 % 0.0 mm 578.0 W/m2 CLR
15:42 23.3 °C 11.7 °C 1020.9 hPa SSW 18.5 km/h 18.5 km/h 48 % 0.0 mm 640.0 W/m2 CLR
15:47 23.9 °C 11.2 °C 1020.9 hPa SSW 13.0 km/h 13.0 km/h 45 % 0.0 mm 633.0 W/m2 CLR
15:52 23.9 °C 11.6 °C 1020.9 hPa SSW 13.0 km/h 13.0 km/h 46 % 0.0 mm 629.0 W/m2 CLR
15:57 23.9 °C 11.6 °C 1020.9 hPa ESE 5.6 km/h 5.6 km/h 46 % 0.0 mm 621.0 W/m2 CLR
16:02 23.9 °C 11.2 °C 1020.9 hPa SW 8.0 km/h 8.0 km/h 45 % 0.0 mm 606.0 W/m2 CLR
16:07 24.4 °C 11.7 °C 1020.9 hPa WSW 3.7 km/h 3.7 km/h 45 % 0.0 mm 594.0 W/m2 CLR
16:12 24.4 °C 12.1 °C 1020.9 hPa Calm     46 % 0.0 mm 596.0 W/m2 CLR
16:17 24.4 °C 11.7 °C 1020.9 hPa Calm     45 % 0.0 mm 575.0 W/m2 CLR
16:22 24.4 °C 12.1 °C 1020.9 hPa NNW 9.3 km/h 9.3 km/h 46 % 0.0 mm 564.0 W/m2 CLR
16:27 24.4 °C 11.7 °C 1020.5 hPa SSW 7.4 km/h 7.4 km/h 45 % 0.0 mm 550.0 W/m2 CLR
16:32 24.4 °C 11.7 °C 1020.5 hPa SW 6.4 km/h 6.4 km/h 45 % 0.0 mm 538.0 W/m2 CLR
16:37 23.9 °C 10.9 °C 1020.5 hPa Calm     44 % 0.0 mm 533.0 W/m2 CLR
16:42 24.4 °C 11.4 °C 1020.5 hPa Calm     44 % 0.0 mm 499.0 W/m2 CLR
16:47 24.4 °C 11.4 °C 1020.5 hPa WNW 3.7 km/h 3.7 km/h 44 % 0.0 mm 478.0 W/m2 CLR
16:57 24.4 °C 11.7 °C 1020.5 hPa South 11.1 km/h 11.1 km/h 45 % 0.0 mm 329.0 W/m2 CLR
17:02 23.9 °C 11.2 °C 1020.5 hPa West 3.7 km/h   45 % 0.0 mm 452.0 W/m2 CLR
17:07 24.4 °C 11.7 °C 1020.5 hPa WSW 8.0 km/h 8.0 km/h 45 % 0.0 mm 441.0 W/m2 CLR
17:12 23.9 °C 11.2 °C 1020.5 hPa SW 16.1 km/h 16.1 km/h 45 % 0.0 mm 436.0 W/m2 CLR
17:17 23.9 °C 11.2 °C 1020.5 hPa SW 11.1 km/h 11.1 km/h 45 % 0.0 mm 422.0 W/m2 CLR
17:22 23.9 °C 10.9 °C 1020.5 hPa SW 5.6 km/h 5.6 km/h 44 % 0.0 mm 399.0 W/m2 CLR
17:27 23.9 °C 10.9 °C 1020.5 hPa WSW 5.6 km/h 5.6 km/h 44 % 0.0 mm 387.0 W/m2 CLR
17:28 23.9 °C 10.9 °C 1020.2 hPa Calm     44 % 0.0 mm 383.0 W/m2 CLR
17:33 23.9 °C 10.9 °C 1020.2 hPa West 9.7 km/h 9.7 km/h 44 % 0.0 mm 366.0 W/m2 CLR
17:38 23.9 °C 10.6 °C 1020.2 hPa West 5.6 km/h 5.6 km/h 43 % 0.0 mm 353.0 W/m2 CLR
17:43 23.3 °C 10.4 °C 1020.2 hPa WNW 5.6 km/h   44 % 0.0 mm 341.0 W/m2 CLR
17:48 23.9 °C 10.9 °C 1020.2 hPa NNW 5.6 km/h 5.6 km/h 44 % 0.0 mm 315.0 W/m2 CLR
17:53 23.3 °C 10.4 °C 1020.2 hPa Calm     44 % 0.0 mm 308.0 W/m2 CLR
17:58 23.3 °C 10.4 °C 1020.5 hPa West 11.1 km/h 11.1 km/h 44 % 0.0 mm 292.0 W/m2 CLR
18:03 23.3 °C 10.7 °C 1020.5 hPa NW 7.4 km/h 7.4 km/h 45 % 0.0 mm 274.0 W/m2 CLR
18:08 23.3 °C 10.7 °C 1020.5 hPa Calm     45 % 0.0 mm 257.0 W/m2 CLR
18:13 22.8 °C 10.6 °C 1020.5 hPa Calm     46 % 0.0 mm 241.0 W/m2 CLR
18:20 22.8 °C 10.2 °C 1020.5 hPa Calm     45 % 0.0 mm 216.0 W/m2 CLR
18:25 22.8 °C 10.2 °C 1020.5 hPa Calm     45 % 0.0 mm 199.0 W/m2 CLR
18:30 22.8 °C 10.2 °C 1020.5 hPa NNW 3.7 km/h 3.7 km/h 45 % 0.0 mm 176.0 W/m2 CLR
18:35 22.8 °C 10.2 °C 1020.5 hPa Calm     45 % 0.0 mm 160.0 W/m2 CLR
18:40 22.2 °C 10.1 °C 1020.5 hPa Calm     46 % 0.0 mm 142.0 W/m2 CLR
18:45 22.2 °C 10.1 °C 1020.5 hPa NW 1.9 km/h   46 % 0.0 mm 127.0 W/m2 CLR
18:50 22.2 °C 10.1 °C 1020.5 hPa Calm     46 % 0.0 mm 111.0 W/m2 CLR
18:55 22.2 °C 10.1 °C 1020.5 hPa Calm     46 % 0.0 mm 95.0 W/m2 CLR
19:00 21.7 °C 9.2 °C 1020.5 hPa Calm     45 % 0.0 mm 79.0 W/m2 FEW
19:05 21.7 °C 9.2 °C 1020.5 hPa Calm     45 % 0.0 mm 65.0 W/m2 SCT
19:10 21.7 °C 9.6 °C 1020.5 hPa Calm     46 % 0.0 mm 49.0 W/m2 SCT
19:15 21.1 °C 10.3 °C 1020.5 hPa NE 13.0 km/h 13.0 km/h 50 % 0.0 mm 39.0 W/m2 BKN
19:20 21.1 °C 11.4 °C 1020.9 hPa East 16.7 km/h 16.7 km/h 54 % 0.0 mm 32.0 W/m2 BKN
19:25 21.1 °C 12.0 °C 1020.9 hPa ENE 16.7 km/h 16.7 km/h 56 % 0.0 mm 26.0 W/m2 BKN
19:30 20.6 °C 12.0 °C 1020.9 hPa East 14.8 km/h 14.8 km/h 58 % 0.0 mm 21.0 W/m2 BKN
19:35 20.6 °C 12.0 °C 1020.9 hPa East 9.3 km/h 9.3 km/h 58 % 0.0 mm 16.0 W/m2 BKN
19:36 20.6 °C 12.0 °C 1020.9 hPa ENE 9.3 km/h 9.3 km/h 58 % 0.0 mm 16.0 W/m2 BKN
19:41 20.0 °C 11.7 °C 1020.9 hPa NE 13.0 km/h 13.0 km/h 59 % 0.0 mm 12.0 W/m2 BKN
19:46 20.0 °C 12.0 °C 1021.2 hPa ENE 14.8 km/h 14.8 km/h 60 % 0.0 mm 9.0 W/m2 BKN
19:51 20.0 °C 12.2 °C 1021.2 hPa ENE 7.4 km/h 7.4 km/h 61 % 0.0 mm 5.0 W/m2 OVC
19:56 20.0 °C 12.5 °C 1021.2 hPa ENE 14.8 km/h 14.8 km/h 62 % 0.0 mm 0.0 W/m2 OVC
20:01 19.4 °C 11.9 °C 1021.2 hPa ENE 7.4 km/h 7.4 km/h 62 % 0.0 mm 0.0 W/m2 CLR
20:06 18.9 °C 11.7 °C 1021.2 hPa East 13.0 km/h 13.0 km/h 63 % 0.0 mm 0.0 W/m2 CLR
20:11 18.9 °C 11.9 °C 1021.2 hPa ENE 14.8 km/h 14.8 km/h 64 % 0.0 mm 0.0 W/m2 CLR
20:16 18.3 °C 11.6 °C 1021.2 hPa ENE 13.0 km/h 13.0 km/h 65 % 0.0 mm 0.0 W/m2 CLR
20:21 18.3 °C 11.6 °C 1021.6 hPa ENE 8.0 km/h 8.0 km/h 65 % 0.0 mm 0.0 W/m2 CLR
20:26 18.3 °C 11.9 °C 1021.6 hPa ENE 7.4 km/h 7.4 km/h 66 % 0.0 mm 0.0 W/m2 CLR
20:31 18.3 °C 11.9 °C 1021.6 hPa ENE 11.1 km/h 11.1 km/h 66 % 0.0 mm 0.0 W/m2 CLR
20:36 17.8 °C 11.6 °C 1021.6 hPa ENE 11.1 km/h 11.1 km/h 67 % 0.0 mm 0.0 W/m2 CLR
20:41 17.8 °C 11.6 °C 1021.6 hPa ENE 7.4 km/h 7.4 km/h 67 % 0.0 mm 0.0 W/m2 CLR
20:46 17.8 °C 11.6 °C 1021.6 hPa ENE 8.0 km/h 8.0 km/h 67 % 0.0 mm 0.0 W/m2 CLR
20:51 17.2 °C 11.1 °C 1021.9 hPa ENE 6.4 km/h 6.4 km/h 67 % 0.0 mm 0.0 W/m2 CLR
20:56 17.2 °C 11.3 °C 1021.9 hPa East 14.8 km/h 14.8 km/h 68 % 0.0 mm 0.0 W/m2 CLR
21:01 17.2 °C 11.3 °C 1021.9 hPa East 11.1 km/h 11.1 km/h 68 % 0.0 mm 0.0 W/m2 CLR
21:06 17.2 °C 11.3 °C 1021.9 hPa East 11.1 km/h 11.1 km/h 68 % 0.0 mm 0.0 W/m2 CLR
21:11 17.2 °C 11.3 °C 1021.9 hPa East 5.6 km/h 5.6 km/h 68 % 0.0 mm 0.0 W/m2 CLR
21:12 17.2 °C 11.3 °C 1021.9 hPa East 5.6 km/h 5.6 km/h 68 % 0.0 mm 0.0 W/m2 CLR
21:17 17.2 °C 11.3 °C 1021.9 hPa East 13.0 km/h 13.0 km/h 68 % 0.0 mm 0.0 W/m2 CLR
21:22 17.2 °C 11.5 °C 1021.9 hPa ENE 14.8 km/h 14.8 km/h 69 % 0.0 mm 0.0 W/m2 CLR
21:27 17.2 °C 11.5 °C 1022.2 hPa ENE 11.1 km/h 11.1 km/h 69 % 0.0 mm 0.0 W/m2 CLR
21:32 17.2 °C 11.7 °C 1022.2 hPa ENE 14.8 km/h 14.8 km/h 70 % 0.0 mm 0.0 W/m2 CLR
21:42 16.7 °C 11.4 °C 1022.2 hPa ENE 13.0 km/h 13.0 km/h 71 % 0.0 mm 0.0 W/m2 CLR
21:52 16.7 °C 11.4 °C 1022.2 hPa East 13.0 km/h 13.0 km/h 71 % 0.0 mm 0.0 W/m2 CLR
21:57 16.7 °C 11.4 °C 1022.2 hPa East 5.6 km/h 5.6 km/h 71 % 0.0 mm 0.0 W/m2 CLR
22:02 16.1 °C 10.8 °C 1022.2 hPa ENE 5.6 km/h 5.6 km/h 71 % 0.0 mm 0.0 W/m2 CLR
22:07 16.1 °C 10.8 °C 1022.2 hPa Calm     71 % 0.0 mm 0.0 W/m2 CLR
22:12 16.1 °C 11.1 °C 1022.6 hPa ENE 13.0 km/h 13.0 km/h 72 % 0.0 mm 0.0 W/m2 CLR
22:17 15.6 °C 10.5 °C 1022.6 hPa East 5.6 km/h 5.6 km/h 72 % 0.0 mm 0.0 W/m2 CLR
22:22 15.6 °C 10.7 °C 1022.6 hPa ENE 9.3 km/h 9.3 km/h 73 % 0.0 mm 0.0 W/m2 CLR
22:27 15.6 °C 10.7 °C 1022.6 hPa East 6.4 km/h 6.4 km/h 73 % 0.0 mm 0.0 W/m2 CLR
22:32 15.0 °C 10.2 °C 1022.6 hPa East 1.9 km/h   73 % 0.0 mm 0.0 W/m2 CLR
22:37 15.0 °C 10.2 °C 1022.6 hPa East 1.6 km/h 1.6 km/h 73 % 0.0 mm 0.0 W/m2 CLR
22:42 15.6 °C 10.7 °C 1022.6 hPa ESE 4.8 km/h 4.8 km/h 73 % 0.0 mm 0.0 W/m2 CLR
22:47 16.1 °C 11.3 °C 1022.6 hPa ESE 14.8 km/h 14.8 km/h 73 % 0.0 mm 0.0 W/m2 CLR
22:52 16.1 °C 11.3 °C 1022.6 hPa Calm     73 % 0.0 mm 0.0 W/m2 CLR
22:57 16.1 °C 11.3 °C 1022.6 hPa Calm     73 % 0.0 mm 0.0 W/m2 CLR
23:02 15.6 °C 10.5 °C 1022.6 hPa Calm     72 % 0.0 mm 0.0 W/m2 CLR
23:07 15.6 °C 10.9 °C 1022.6 hPa Calm     74 % 0.0 mm 0.0 W/m2 CLR
23:12 15.0 °C 10.4 °C 1022.9 hPa Calm     74 % 0.0 mm 0.0 W/m2 CLR
23:17 15.0 °C 10.6 °C 1022.9 hPa Calm     75 % 0.0 mm 0.0 W/m2 CLR
23:22 15.0 °C 10.8 °C 1022.9 hPa Calm     76 % 0.0 mm 0.0 W/m2 CLR
23:27 14.4 °C 10.1 °C 1022.9 hPa Calm     75 % 0.0 mm 0.0 W/m2 CLR
23:32 14.4 °C 10.3 °C 1022.9 hPa Calm     76 % 0.0 mm 0.0 W/m2 CLR
23:37 14.4 °C 10.4 °C 1022.9 hPa Calm     77 % 0.0 mm 0.0 W/m2 CLR
23:42 14.4 °C 10.7 °C 1022.9 hPa Calm     78 % 0.0 mm 0.0 W/m2 CLR
23:46 14.4 °C 10.7 °C 1022.9 hPa Calm     78 % 0.0 mm 0.0 W/m2 CLR
23:51 14.4 °C 10.7 °C 1022.9 hPa Calm     78 % 0.0 mm 0.0 W/m2 CLR
23:56 13.9 °C 10.1 °C 1023.2 hPa Calm     78 % 0.0 mm 0.0 W/m2 CLR
Lo Temps de Massalio
Compliments of Weather Underground - 1.25 mb